Time;durP1;ratioP1;P1;durP2;ratioP2;P2;SDS_P1;SDS_P2;PMS_P1;PMS_P2;Temp;Humidity;BMP_temperature;BMP_pressure;BME280_temperature;BME280_humidity;BME280_pressure;Samples;Min_cycle;Max_cycle;Signal;HPM_P1;HPM_P2
2022/08/09 00:02:09;;;;;;;3.10;2.33;;;16.40;5.40;;;;;;5088595;28;34509;-77
2022/08/09 00:04:35;;;;;;;4.32;2.55;;;16.30;5.60;;;;;;5088239;28;35889;-76
2022/08/09 00:07:03;;;;;;;2.67;2.15;;;16.30;5.70;;;;;;5088362;28;34077;-76
2022/08/09 00:09:29;;;;;;;3.15;2.42;;;16.30;5.90;;;;;;5071181;27;34472;-76
2022/08/09 00:11:55;;;;;;;7.15;2.50;;;16.20;5.90;;;;;;5071263;28;34595;-76
2022/08/09 00:14:22;;;;;;;3.47;2.30;;;16.20;6.00;;;;;;5126067;27;35900;-76
2022/08/09 00:16:48;;;;;;;3.78;2.38;;;16.10;6.10;;;;;;5127551;27;34197;-77
2022/08/09 00:19:14;;;;;;;2.15;1.90;;;16.10;6.20;;;;;;5087865;28;34075;-77
2022/08/09 00:21:40;;;;;;;2.50;2.22;;;16.10;6.30;;;;;;5087743;28;34118;-76
2022/08/09 00:24:06;;;;;;;2.72;2.33;;;16.10;6.40;;;;;;5087359;28;35473;-76
2022/08/09 00:26:32;;;;;;;4.07;2.55;;;16.00;6.30;;;;;;5092536;27;34186;-76
2022/08/09 00:29:00;;;;;;;3.28;2.50;;;16.00;6.50;;;;;;5105420;27;34386;-77
2022/08/09 00:31:26;;;;;;;2.75;2.30;;;16.00;6.80;;;;;;5118105;27;34218;-77
2022/08/09 00:33:54;;;;;;;3.88;2.50;;;15.90;6.70;;;;;;5094522;28;36654;-76
2022/08/09 00:36:21;;;;;;;3.10;2.50;;;15.90;7.00;;;;;;5088371;28;34080;-77
2022/08/09 00:38:47;;;;;;;3.80;2.40;;;15.90;7.00;;;;;;5092386;27;34272;-76
2022/08/09 00:41:13;;;;;;;3.10;2.20;;;15.80;6.80;;;;;;5097920;27;34455;-77
2022/08/09 00:43:41;;;;;;;2.25;1.95;;;15.80;6.90;;;;;;5081461;27;35951;-77
2022/08/09 00:46:08;;;;;;;2.42;2.22;;;15.80;7.00;;;;;;5126185;27;34148;-77
2022/08/09 00:48:35;;;;;;;3.17;2.58;;;15.70;7.20;;;;;;5115676;27;34136;-77
2022/08/09 00:51:03;;;;;;;2.53;2.30;;;15.70;7.50;;;;;;5105890;28;34000;-77
2022/08/09 00:53:30;;;;;;;4.38;2.38;;;15.70;7.50;;;;;;5087100;27;35768;-77
2022/08/09 00:55:56;;;;;;;2.22;2.03;;;15.60;7.40;;;;;;5106581;27;34206;-77
2022/08/09 00:58:22;;;;;;;2.40;2.20;;;15.60;7.60;;;;;;5128421;27;34117;-77
2022/08/09 01:00:52;;;;;;;5.28;2.42;;;15.60;7.50;;;;;;5147290;27;34348;-77
2022/08/09 01:03:47;;;;;;;2.88;2.45;;;15.50;8.10;;;;;;5097369;27;36691;-78
2022/08/09 01:06:38;;;;;;;3.47;2.50;;;15.50;11.30;;;;;;5108481;27;34177;-77
2022/08/09 01:09:23;;;;;;;4.35;2.55;;;15.50;11.40;;;;;;5125808;27;34089;-77
2022/08/09 01:12:00;;;;;;;2.40;2.20;;;15.40;11.40;;;;;;5091094;27;34113;-77
2022/08/09 01:14:36;;;;;;;4.15;2.53;;;15.40;9.60;;;;;;5082363;28;35629;-77
2022/08/09 01:17:08;;;;;;;5.68;2.42;;;15.30;10.10;;;;;;5117394;27;34137;-77
2022/08/09 01:19:53;;;;;;;3.17;2.20;;;15.30;9.70;;;;;;5106957;27;34198;-77
2022/08/09 01:22:47;;;;;;;2.55;2.33;;;15.20;11.90;;;;;;5119814;27;34205;-77
2022/08/09 01:25:40;;;;;;;2.70;2.45;;;15.20;12.60;;;;;;5087160;28;35621;-77
2022/08/09 01:28:07;;;;;;;2.50;2.17;;;15.20;11.60;;;;;;5105841;27;34213;-77
2022/08/09 01:30:35;;;;;;;3.35;2.60;;;15.10;8.50;;;;;;5106364;27;34116;-77
2022/08/09 01:33:02;;;;;;;6.18;2.47;;;15.10;8.70;;;;;;5100123;28;34138;-77
2022/08/09 01:35:35;;;;;;;3.97;2.33;;;15.00;8.80;;;;;;5089412;27;36558;-77
2022/08/09 01:38:06;;;;;;;4.32;2.38;;;15.00;9.70;;;;;;5111441;27;34118;-77
2022/08/09 01:40:34;;;;;;;2.35;1.85;;;14.90;9.50;;;;;;5128236;27;34075;-77
2022/08/09 01:43:02;;;;;;;2.85;2.30;;;14.90;9.40;;;;;;5107992;27;34181;-77
2022/08/09 01:45:30;;;;;;;3.10;2.20;;;14.90;9.90;;;;;;5107185;27;34343;-77
2022/08/09 01:47:59;;;;;;;2.85;2.35;;;14.80;9.40;;;;;;5106781;27;34280;-77
2022/08/09 01:50:26;;;;;;;3.30;2.55;;;14.70;10.00;;;;;;5127367;27;34054;-77
2022/08/09 01:52:55;;;;;;;2.78;2.55;;;14.70;9.50;;;;;;5107506;27;34364;-77
2022/08/09 01:55:24;;;;;;;2.90;2.15;;;14.60;10.00;;;;;;5106345;27;35792;-77
2022/08/09 01:57:52;;;;;;;3.30;2.20;;;14.60;9.90;;;;;;5089752;27;34151;-77
2022/08/09 02:00:19;;;;;;;3.00;2.63;;;14.60;9.80;;;;;;5106897;27;34156;-77
2022/08/09 02:02:49;;;;;;;2.53;2.30;;;14.60;9.80;;;;;;5135491;27;34248;-77
2022/08/09 02:05:20;;;;;;;2.63;2.38;;;14.60;10.50;;;;;;5126962;27;35792;-77
2022/08/09 02:07:52;;;;;;;2.60;2.40;;;14.50;10.60;;;;;;5127322;27;34306;-77
2022/08/09 02:10:23;;;;;;;5.13;2.28;;;14.50;11.00;;;;;;5093551;27;34434;-77
2022/08/09 02:12:51;;;;;;;3.22;2.50;;;14.50;10.40;;;;;;5127016;27;33826;-78
2022/08/09 02:15:18;;;;;;;5.10;2.72;;;14.40;10.20;;;;;;5104357;27;36014;-76
2022/08/09 02:17:46;;;;;;;4.53;2.47;;;14.40;10.40;;;;;;5106502;27;34231;-77
2022/08/09 02:20:13;;;;;;;2.92;2.60;;;14.30;10.70;;;;;;5106886;27;34077;-77
2022/08/09 02:23:04;;;;;;;3.50;2.30;;;14.20;10.60;;;;;;5125668;27;34131;-77
2022/08/09 02:25:35;;;;;;;4.38;3.00;;;14.20;11.00;;;;;;5084501;28;34479;-77
2022/08/09 02:28:08;;;;;;;3.17;2.75;;;14.10;11.10;;;;;;5083723;28;34258;-77
2022/08/09 02:30:43;;;;;;;3.45;2.67;;;14.10;11.70;;;;;;5101719;28;34390;-77
2022/08/09 02:33:14;;;;;;;2.92;2.63;;;14.10;11.70;;;;;;5068560;28;34620;-77
2022/08/09 02:35:42;;;;;;;3.90;2.53;;;14.00;11.50;;;;;;5068307;28;35504;-77
2022/08/09 02:38:11;;;;;;;2.70;2.50;;;14.00;11.10;;;;;;5085437;28;34173;-77
2022/08/09 02:40:40;;;;;;;2.83;2.42;;;14.00;11.10;;;;;;5077638;28;34198;-77
2022/08/09 02:43:09;;;;;;;3.42;2.75;;;14.00;11.10;;;;;;5087477;28;34231;-77
2022/08/09 02:45:42;;;;;;;3.13;2.72;;;13.90;11.30;;;;;;5069580;28;35477;-77
2022/08/09 02:48:13;;;;;;;4.15;2.50;;;13.90;12.10;;;;;;5048172;28;34318;-77
2022/08/09 02:50:55;;;;;;;6.95;2.60;;;13.90;11.60;;;;;;5072768;28;34243;-77
2022/08/09 02:53:27;;;;;;;4.25;2.80;;;13.90;14.10;;;;;;5068266;28;34355;-77
2022/08/09 02:55:55;;;;;;;4.35;2.90;;;13.90;12.00;;;;;;5082990;28;35933;-77
2022/08/09 02:58:25;;;;;;;4.65;2.80;;;13.80;11.40;;;;;;5050183;28;34351;-77
2022/08/09 03:00:53;;;;;;;3.00;2.70;;;13.80;11.70;;;;;;5064227;28;34278;-77
2022/08/09 03:03:20;;;;;;;3.65;2.60;;;13.70;11.60;;;;;;5064111;28;34199;-77
2022/08/09 03:05:49;;;;;;;2.75;2.55;;;13.80;11.50;;;;;;5080459;28;36852;-77
2022/08/09 03:08:16;;;;;;;2.90;2.67;;;13.70;11.70;;;;;;5084399;28;34266;-77
2022/08/09 03:10:44;;;;;;;3.50;2.60;;;13.70;11.60;;;;;;5084360;28;34356;-77
2022/08/09 03:13:14;;;;;;;2.85;2.50;;;13.70;11.70;;;;;;5084045;28;34211;-77
2022/08/09 03:15:41;;;;;;;2.70;2.47;;;13.60;12.10;;;;;;5084499;28;36336;-77
2022/08/09 03:18:08;;;;;;;2.92;2.65;;;13.60;11.70;;;;;;5067355;28;34242;-77
2022/08/09 03:20:37;;;;;;;2.60;2.40;;;13.60;12.30;;;;;;5073883;28;34258;-77
2022/08/09 03:23:04;;;;;;;3.13;2.53;;;13.50;12.20;;;;;;5071515;28;34227;-77
2022/08/09 03:25:32;;;;;;;2.75;2.50;;;13.50;12.00;;;;;;5070709;28;36073;-77
2022/08/09 03:27:59;;;;;;;2.88;2.65;;;13.50;12.00;;;;;;5070776;28;34220;-77
2022/08/09 03:30:27;;;;;;;3.00;2.50;;;13.40;12.20;;;;;;5087184;28;34172;-77
2022/08/09 03:32:55;;;;;;;3.28;2.40;;;13.40;12.10;;;;;;5057898;28;34538;-77
2022/08/09 03:35:22;;;;;;;2.70;2.50;;;13.40;12.20;;;;;;5028859;28;36358;-77
2022/08/09 03:37:48;;;;;;;3.15;2.60;;;13.40;12.10;;;;;;5057073;28;34194;-77
2022/08/09 03:40:14;;;;;;;2.97;2.20;;;13.30;12.10;;;;;;5086436;28;34195;-77
2022/08/09 03:42:40;;;;;;;3.30;2.67;;;13.30;12.10;;;;;;5083721;28;34112;-77
2022/08/09 03:45:07;;;;;;;3.38;2.78;;;13.30;12.30;;;;;;5085592;28;35507;-77
2022/08/09 03:47:33;;;;;;;3.08;2.70;;;13.30;12.30;;;;;;5080814;27;34358;-77
2022/08/09 03:50:01;;;;;;;3.13;2.63;;;13.20;12.30;;;;;;5102591;28;34084;-77
2022/08/09 03:52:29;;;;;;;3.08;2.78;;;13.20;12.50;;;;;;5071193;28;34222;-77
2022/08/09 03:54:58;;;;;;;3.92;2.80;;;13.20;12.60;;;;;;5095066;27;35952;-77
2022/08/09 03:57:25;;;;;;;3.28;2.70;;;13.20;12.50;;;;;;5106155;28;34125;-77
2022/08/09 03:59:52;;;;;;;2.53;2.33;;;13.10;12.50;;;;;;5086553;28;34175;-77
2022/08/09 04:02:19;;;;;;;3.80;2.45;;;13.10;12.80;;;;;;5103891;27;33922;-77
2022/08/09 04:04:45;;;;;;;4.45;2.90;;;13.10;12.70;;;;;;5122593;27;36560;-77
2022/08/09 04:07:11;;;;;;;2.78;2.50;;;13.10;12.90;;;;;;5147240;27;34061;-77
2022/08/09 04:09:37;;;;;;;3.80;2.67;;;13.00;12.70;;;;;;5128327;27;34290;-77
2022/08/09 04:12:35;;;;;;;2.78;2.58;;;13.00;12.80;;;;;;5118342;27;34237;-77
2022/08/09 04:15:01;;;;;;;2.85;2.38;;;13.00;15.90;;;;;;5091398;28;35729;-77
2022/08/09 04:17:27;;;;;;;3.72;2.80;;;12.90;12.80;;;;;;5107423;27;34272;-77
2022/08/09 04:19:53;;;;;;;3.17;2.88;;;12.90;12.90;;;;;;5107580;27;34142;-77
2022/08/09 04:22:19;;;;;;;3.60;2.60;;;12.90;13.00;;;;;;5121752;27;34211;-77
2022/08/09 04:24:44;;;;;;;3.70;2.75;;;12.90;13.10;;;;;;5090473;27;35559;-77
2022/08/09 04:27:10;;;;;;;3.72;2.70;;;12.90;13.10;;;;;;5090918;27;34137;-77
2022/08/09 04:29:36;;;;;;;3.33;2.58;;;12.80;13.20;;;;;;5091051;27;34173;-78
2022/08/09 04:32:02;;;;;;;2.53;2.33;;;12.80;13.20;;;;;;5087508;27;34092;-77
2022/08/09 04:34:32;;;;;;;4.05;2.72;;;12.80;13.10;;;;;;5094904;27;35644;-77
2022/08/09 04:36:58;;;;;;;4.55;2.67;;;12.80;13.10;;;;;;5108176;27;34307;-77
2022/08/09 04:39:24;;;;;;;2.80;2.58;;;12.80;13.20;;;;;;5107600;27;34126;-77
2022/08/09 04:41:50;;;;;;;4.03;3.15;;;12.80;13.10;;;;;;5093275;27;34223;-77
2022/08/09 04:44:16;;;;;;;5.57;3.05;;;12.80;13.20;;;;;;5091151;27;36811;-77
2022/08/09 04:46:42;;;;;;;4.63;2.92;;;12.80;13.30;;;;;;5120428;27;34127;-77
2022/08/09 04:49:08;;;;;;;3.85;2.40;;;12.80;13.50;;;;;;5107981;27;34443;-76
2022/08/09 04:51:35;;;;;;;3.95;2.70;;;12.70;13.50;;;;;;5093868;27;34589;-77
2022/08/09 04:54:01;;;;;;;4.25;3.22;;;12.70;13.60;;;;;;5121549;27;35968;-77
2022/08/09 04:56:27;;;;;;;5.32;2.47;;;12.80;13.60;;;;;;5122915;27;34277;-77
2022/08/09 04:58:53;;;;;;;3.35;2.80;;;12.80;13.60;;;;;;5104589;27;34339;-77
2022/08/09 05:01:19;;;;;;;3.00;2.70;;;12.80;13.60;;;;;;5121484;27;34073;-77
2022/08/09 05:03:45;;;;;;;3.75;2.92;;;12.70;13.70;;;;;;5069960;28;35682;-77
2022/08/09 05:06:11;;;;;;;3.50;2.72;;;12.80;13.80;;;;;;5118164;27;34317;-77
2022/08/09 05:08:37;;;;;;;3.75;2.80;;;12.80;13.90;;;;;;5137438;27;34231;-77
2022/08/09 05:11:03;;;;;;;5.18;2.90;;;12.80;13.90;;;;;;5110974;27;35467;-76
2022/08/09 05:13:30;;;;;;;4.15;2.72;;;12.80;14.00;;;;;;5089784;27;36498;-78
2022/08/09 05:15:56;;;;;;;3.08;2.78;;;12.80;14.00;;;;;;5115821;27;34286;-77
2022/08/09 05:18:21;;;;;;;2.92;2.72;;;12.80;14.10;;;;;;5098647;27;34246;-77
2022/08/09 05:20:48;;;;;;;3.30;3.00;;;12.90;14.10;;;;;;5098626;27;34145;-77
2022/08/09 05:23:32;;;;;;;5.15;3.47;;;13.00;14.10;;;;;;5136972;27;35540;-77
2022/08/09 05:25:58;;;;;;;5.28;2.88;;;13.30;14.00;;;;;;5087850;27;34102;-77
2022/08/09 05:28:24;;;;;;;4.88;3.05;;;13.70;13.70;;;;;;5091422;27;34231;-77
2022/08/09 05:30:50;;;;;;;3.53;3.00;;;14.00;13.10;;;;;;5092746;27;35689;-77
2022/08/09 05:33:16;;;;;;;3.38;3.00;;;14.10;12.80;;;;;;5110476;27;35620;-77
2022/08/09 05:35:42;;;;;;;7.10;3.15;;;14.20;12.90;;;;;;5091787;27;34251;-77
2022/08/09 05:38:08;;;;;;;3.13;2.83;;;14.20;12.80;;;;;;5131274;27;34464;-78
2022/08/09 05:40:34;;;;;;;4.05;3.00;;;14.20;13.00;;;;;;5117218;27;34273;-77
2022/08/09 05:43:00;;;;;;;3.20;2.90;;;14.20;13.10;;;;;;5104624;27;35657;-77
2022/08/09 05:45:28;;;;;;;3.70;3.10;;;14.20;13.30;;;;;;5127341;27;34178;-77
2022/08/09 05:47:55;;;;;;;7.18;3.13;;;14.30;13.40;;;;;;5086373;28;34307;-77
2022/08/09 05:50:24;;;;;;;4.32;3.35;;;14.40;13.50;;;;;;5086808;28;34551;-77
2022/08/09 05:52:51;;;;;;;3.78;3.25;;;14.40;13.50;;;;;;5084103;28;35803;-77
2022/08/09 05:55:17;;;;;;;7.18;3.78;;;14.50;13.80;;;;;;5120205;27;34055;-77
2022/08/09 05:57:44;;;;;;;6.78;3.50;;;14.60;13.60;;;;;;5126409;27;33988;-76
2022/08/09 06:00:11;;;;;;;4.82;4.30;;;14.70;13.60;;;;;;5106793;28;34163;-77
2022/08/09 06:02:38;;;;;;;5.45;3.95;;;14.90;13.70;;;;;;5127143;27;35108;-77
2022/08/09 06:05:05;;;;;;;5.38;3.65;;;15.30;13.30;;;;;;5123537;27;34628;-78
2022/08/09 06:07:33;;;;;;;4.72;3.80;;;15.90;12.70;;;;;;5122901;27;34375;-78
2022/08/09 06:10:00;;;;;;;5.95;3.40;;;16.60;11.60;;;;;;5106829;28;34328;-78
2022/08/09 06:12:26;;;;;;;4.35;3.80;;;17.50;10.30;;;;;;5107801;27;35716;-77
2022/08/09 06:14:52;;;;;;;6.15;3.60;;;18.50;8.90;;;;;;5112520;27;34282;-77
2022/08/09 06:17:18;;;;;;;3.20;2.90;;;19.40;7.60;;;;;;5110909;27;34305;-77
2022/08/09 06:19:44;;;;;;;5.93;3.80;;;20.40;6.30;;;;;;5128303;27;34141;-77
2022/08/09 06:22:10;;;;;;;3.55;2.97;;;21.30;5.60;;;;;;5123038;27;36029;-78
2022/08/09 06:24:36;;;;;;;4.38;3.15;;;22.10;4.60;;;;;;5114002;27;34242;-79
2022/08/09 06:27:02;;;;;;;4.95;2.58;;;22.90;4.00;;;;;;5130473;27;34260;-78
2022/08/09 06:29:31;;;;;;;4.45;2.30;;;23.60;3.10;;;;;;5107360;27;34060;-78
2022/08/09 06:31:57;;;;;;;5.55;2.63;;;24.40;2.40;;;;;;5091332;28;34461;-78
2022/08/09 06:34:24;;;;;;;4.05;2.63;;;24.90;1.90;;;;;;5112338;27;34513;-79
2022/08/09 06:36:51;;;;;;;3.00;2.45;;;25.40;1.00;;;;;;5094038;27;34383;-78
2022/08/09 06:39:17;;;;;;;4.93;2.70;;;25.80;1.00;;;;;;5092636;27;34560;-78
2022/08/09 06:41:43;;;;;;;4.72;2.88;;;26.30;1.00;;;;;;5093976;27;35582;-78
2022/08/09 06:44:13;;;;;;;4.10;2.40;;;26.70;1.00;;;;;;5119926;27;34170;-78
2022/08/09 06:46:39;;;;;;;8.10;2.75;;;27.10;1.00;;;;;;5099040;27;33997;-78
2022/08/09 06:49:05;;;;;;;3.35;2.33;;;27.50;1.00;;;;;;5094354;27;34238;-78
2022/08/09 06:51:34;;;;;;;4.95;2.60;;;27.90;1.00;;;;;;5077202;27;34480;-77
2022/08/09 06:54:00;;;;;;;5.55;2.45;;;28.20;1.00;;;;;;5129303;27;34051;-78
2022/08/09 06:56:26;;;;;;;4.22;2.35;;;28.50;1.00;;;;;;5105550;27;34294;-78
2022/08/09 06:58:52;;;;;;;3.55;2.45;;;28.80;1.00;;;;;;5104066;27;34494;-77
2022/08/09 07:01:18;;;;;;;2.25;2.03;;;29.10;1.00;;;;;;5090730;28;35475;-78
2022/08/09 07:03:44;;;;;;;4.03;2.33;;;29.40;1.00;;;;;;5092021;27;34377;-77
2022/08/09 07:06:10;;;;;;;6.65;2.20;;;29.60;1.00;;;;;;5105226;27;34214;-78
2022/08/09 07:08:37;;;;;;;5.97;2.35;;;29.80;1.00;;;;;;5113635;27;34651;-77
2022/08/09 07:11:03;;;;;;;4.30;2.05;;;30.10;1.00;;;;;;5109076;27;35539;-77
2022/08/09 07:13:33;;;;;;;4.35;2.08;;;30.20;1.00;;;;;;5091359;28;34213;-78
2022/08/09 07:15:59;;;;;;;3.00;2.00;;;30.40;1.00;;;;;;5093036;27;34169;-77
2022/08/09 07:18:27;;;;;;;2.72;1.80;;;30.40;1.00;;;;;;5128156;27;33889;-79
2022/08/09 07:20:53;;;;;;;2.78;1.88;;;30.60;1.00;;;;;;5094274;27;35691;-77
2022/08/09 07:23:19;;;;;;;3.13;1.52;;;30.50;1.00;;;;;;5093176;27;34200;-77
2022/08/09 07:25:47;;;;;;;2.03;1.75;;;30.60;1.00;;;;;;5102826;27;35658;-77
2022/08/09 07:28:13;;;;;;;5.82;2.00;;;30.50;1.00;;;;;;5124417;27;34320;-77
2022/08/09 07:30:39;;;;;;;1.67;1.58;;;30.60;1.00;;;;;;5121319;27;35724;-76
2022/08/09 07:33:05;;;;;;;3.47;1.70;;;30.80;1.00;;;;;;5120124;27;34296;-76
2022/08/09 07:35:33;;;;;;;2.30;1.70;;;30.70;1.00;;;;;;5113804;27;34146;-77
2022/08/09 07:37:59;;;;;;;8.07;1.90;;;30.70;1.00;;;;;;5109899;27;34602;-76
2022/08/09 07:40:26;;;;;;;1.95;1.65;;;30.70;1.00;;;;;;5107916;27;36744;-76
2022/08/09 07:43:01;;;;;;;1.85;1.63;;;30.60;1.00;;;;;;5110477;27;34147;-77
2022/08/09 07:45:29;;;;;;;1.92;1.58;;;30.60;1.00;;;;;;5092511;27;34213;-76
2022/08/09 07:47:56;;;;;;;3.38;1.70;;;30.40;1.00;;;;;;5105992;27;34298;-76
2022/08/09 07:50:24;;;;;;;1.73;1.63;;;30.30;1.00;;;;;;5128665;27;35746;-79
2022/08/09 07:52:51;;;;;;;3.47;1.80;;;30.40;1.00;;;;;;5129733;27;34368;-76
2022/08/09 07:55:17;;;;;;;2.03;1.60;;;30.40;1.00;;;;;;5128916;27;34226;-77
2022/08/09 07:57:47;;;;;;;3.05;1.50;;;30.60;1.00;;;;;;5110329;27;34467;-77
2022/08/09 08:00:15;;;;;;;1.77;1.50;;;30.60;1.00;;;;;;5092183;27;35668;-77
2022/08/09 08:02:41;;;;;;;3.22;1.65;;;30.70;1.00;;;;;;5126999;27;34184;-78
2022/08/09 08:05:08;;;;;;;3.60;1.75;;;30.80;1.00;;;;;;5109103;27;34169;-76
2022/08/09 08:07:34;;;;;;;2.38;1.58;;;30.70;1.00;;;;;;5109769;27;34046;-78
2022/08/09 08:10:00;;;;;;;2.38;1.70;;;30.60;1.00;;;;;;5108467;27;35600;-77
2022/08/09 08:12:26;;;;;;;2.70;1.60;;;30.70;1.00;;;;;;5125405;27;34184;-77
2022/08/09 08:15:04;;;;;;;1.65;1.40;;;30.60;1.00;;;;;;5117122;27;34162;-77
2022/08/09 08:17:30;;;;;;;2.03;1.70;;;30.50;1.00;;;;;;5107048;27;34328;-79
2022/08/09 08:20:15;;;;;;;5.03;1.55;;;30.60;1.00;;;;;;5115283;27;36240;-78
2022/08/09 08:22:41;;;;;;;3.58;1.55;;;30.80;1.00;;;;;;5109529;27;34484;-77
2022/08/09 08:25:08;;;;;;;3.58;1.70;;;30.70;1.00;;;;;;5109735;27;34305;-78
2022/08/09 08:27:34;;;;;;;6.20;1.77;;;30.80;1.00;;;;;;5093523;27;34077;-78
2022/08/09 08:30:00;;;;;;;2.97;1.70;;;30.80;1.00;;;;;;5099027;28;36206;-78
2022/08/09 08:32:26;;;;;;;4.63;1.70;;;30.70;1.00;;;;;;5100592;27;34895;-78
2022/08/09 08:34:53;;;;;;;4.50;1.77;;;30.40;1.00;;;;;;5109487;27;34194;-77
2022/08/09 08:37:47;;;;;;;7.43;1.90;;;30.40;1.00;;;;;;5122684;27;34349;-77
2022/08/09 08:40:14;;;;;;;3.92;1.48;;;30.60;1.00;;;;;;5138141;27;35690;-79
2022/08/09 08:42:42;;;;;;;3.83;1.42;;;30.60;1.00;;;;;;5090570;27;34136;-78
2022/08/09 08:45:33;;;;;;;3.38;1.77;;;30.80;1.00;;;;;;5076537;28;34173;-78
2022/08/09 08:48:12;;;;;;;2.10;1.27;;;30.90;1.00;;;;;;5048374;27;34975;-79
2022/08/09 08:50:58;;;;;;;2.45;1.65;;;31.20;1.00;;;;;;5104381;27;35869;-78
2022/08/09 08:53:25;;;;;;;2.05;1.13;;;31.40;1.00;;;;;;5104408;27;34303;-77
2022/08/09 08:55:51;;;;;;;1.80;1.40;;;31.60;1.00;;;;;;5067175;28;34096;-81
2022/08/09 08:58:17;;;;;;;12.90;1.75;;;31.90;1.00;;;;;;5066797;28;34304;-78
2022/08/09 09:00:43;;;;;;;3.10;1.40;;;31.90;1.00;;;;;;5084500;28;36303;-77
2022/08/09 09:03:11;;;;;;;1.77;1.33;;;31.80;1.00;;;;;;5087504;28;34286;-77
2022/08/09 09:05:37;;;;;;;2.55;1.52;;;31.80;1.00;;;;;;5087121;28;34116;-78
2022/08/09 09:08:04;;;;;;;4.50;1.50;;;32.00;1.00;;;;;;5087098;28;34233;-79
2022/08/09 09:10:31;;;;;;;1.90;1.50;;;32.20;1.00;;;;;;5084073;28;35735;-78
2022/08/09 09:12:58;;;;;;;1.90;1.40;;;32.40;1.00;;;;;;5087920;28;34343;-80
2022/08/09 09:15:24;;;;;;;1.63;1.40;;;32.20;1.00;;;;;;5085538;28;34297;-78
2022/08/09 09:17:53;;;;;;;2.72;1.33;;;32.20;1.00;;;;;;5062644;28;34092;-79
2022/08/09 09:20:20;;;;;;;5.85;1.70;;;32.00;1.00;;;;;;5081747;28;35550;-79
2022/08/09 09:23:02;;;;;;;1.63;1.40;;;32.00;1.00;;;;;;5104705;28;34387;-78
2022/08/09 09:25:35;;;;;;;2.67;1.52;;;32.20;1.00;;;;;;5084486;28;34346;-77
2022/08/09 09:28:03;;;;;;;1.52;1.42;;;32.20;1.00;;;;;;5070212;28;34143;-79
2022/08/09 09:30:30;;;;;;;2.05;1.40;;;32.10;1.00;;;;;;5070730;28;34533;-77
2022/08/09 09:33:07;;;;;;;2.45;1.40;;;32.10;1.00;;;;;;5086214;28;34291;-78
2022/08/09 09:35:33;;;;;;;3.75;1.50;;;32.10;1.00;;;;;;5100276;27;34118;-77
2022/08/09 09:37:59;;;;;;;2.55;1.42;;;32.30;1.00;;;;;;5063031;28;35420;-76
2022/08/09 09:40:42;;;;;;;2.33;1.38;;;32.30;1.00;;;;;;5081773;28;36531;-79
2022/08/09 09:43:08;;;;;;;3.15;1.23;;;32.40;1.00;;;;;;5101483;28;34332;-77
2022/08/09 09:45:51;;;;;;;2.45;1.40;;;32.60;1.00;;;;;;5087691;27;34235;-78
2022/08/09 09:48:19;;;;;;;3.05;1.58;;;32.60;1.00;;;;;;5092968;27;34351;-77
2022/08/09 09:50:47;;;;;;;5.22;1.13;;;32.80;1.00;;;;;;5080759;27;35941;-78
2022/08/09 09:53:16;;;;;;;1.45;1.30;;;32.90;1.00;;;;;;5100687;27;34020;-78
2022/08/09 09:55:52;;;;;;;1.63;1.33;;;33.00;1.00;;;;;;5117247;27;34275;-80
2022/08/09 09:58:19;;;;;;;3.17;1.30;;;33.10;1.00;;;;;;5083051;28;34282;-78
2022/08/09 10:00:53;;;;;;;4.80;1.30;;;33.10;1.00;;;;;;5104523;27;35514;-77
2022/08/09 10:03:37;;;;;;;1.92;1.30;;;33.10;1.00;;;;;;5097074;27;34159;-77
2022/08/09 10:06:03;;;;;;;3.08;1.20;;;33.20;1.00;;;;;;5098351;27;34292;-79
2022/08/09 10:08:29;;;;;;;2.70;1.10;;;33.30;1.00;;;;;;5080990;27;34173;-78
2022/08/09 10:10:56;;;;;;;3.40;1.42;;;33.40;1.00;;;;;;5108429;27;35704;-77
2022/08/09 10:13:23;;;;;;;1.90;1.00;;;33.60;1.00;;;;;;5106199;27;34124;-77
2022/08/09 10:15:51;;;;;;;1.30;1.20;;;33.50;1.00;;;;;;5087393;28;34253;-78
2022/08/09 10:18:17;;;;;;;1.20;1.10;;;33.70;1.00;;;;;;5105560;27;34412;-79
2022/08/09 10:20:43;;;;;;;1.25;1.15;;;33.80;1.00;;;;;;5106412;27;35849;-78
2022/08/09 10:23:17;;;;;;;1.45;1.35;;;33.80;1.00;;;;;;5107307;27;34192;-83
2022/08/09 10:25:44;;;;;;;1.45;1.17;;;33.90;1.00;;;;;;5106763;27;34137;-80
2022/08/09 10:28:11;;;;;;;1.40;1.30;;;34.00;1.00;;;;;;5103108;27;34338;-81
2022/08/09 10:30:38;;;;;;;1.23;1.10;;;34.20;1.00;;;;;;5101933;27;35783;-78
2022/08/09 10:33:04;;;;;;;1.52;1.20;;;34.20;1.00;;;;;;5075003;27;34187;-79
2022/08/09 10:35:31;;;;;;;1.27;1.05;;;34.40;1.00;;;;;;5087132;27;34510;-76
2022/08/09 10:38:03;;;;;;;1.10;1.08;;;34.40;1.00;;;;;;5118906;27;34437;-77
2022/08/09 10:40:29;;;;;;;1.10;1.10;;;34.40;1.00;;;;;;5102709;27;35604;-76
2022/08/09 10:42:55;;;;;;;1.65;1.10;;;34.30;1.00;;;;;;5083164;27;34241;-78
2022/08/09 10:45:22;;;;;;;1.27;1.17;;;34.20;1.00;;;;;;5094659;27;34230;-76
2022/08/09 10:48:06;;;;;;;1.50;1.00;;;34.20;1.00;;;;;;5109982;27;34185;-77
2022/08/09 10:51:13;;;;;;;4.72;1.30;;;34.30;1.00;;;;;;5109130;27;36127;-77
2022/08/09 10:54:01;;;;;;;2.03;1.27;;;34.30;1.00;;;;;;5113413;27;34091;-77
2022/08/09 10:56:30;;;;;;;5.10;1.30;;;34.50;1.00;;;;;;5100254;28;34117;-77
2022/08/09 10:59:02;;;;;;;1.10;1.00;;;34.50;1.00;;;;;;5078413;27;34268;-78
2022/08/09 11:01:38;;;;;;;2.15;1.02;;;34.60;1.00;;;;;;5091683;27;35820;-76
2022/08/09 11:04:21;;;;;;;0.77;0.77;;;34.50;1.00;;;;;;5108749;27;34193;-76
2022/08/09 11:07:24;;;;;;;3.03;0.80;;;34.50;1.00;;;;;;5109183;27;34364;-76
2022/08/09 11:09:51;;;;;;;1.08;1.05;;;34.40;1.00;;;;;;5093652;28;34428;-79
2022/08/09 11:12:23;;;;;;;2.67;1.00;;;34.20;1.00;;;;;;5102250;27;36958;-79
2022/08/09 11:14:55;;;;;;;3.47;0.90;;;34.40;1.00;;;;;;5104075;27;34432;-78
2022/08/09 11:17:45;;;;;;;1.77;1.10;;;34.50;1.00;;;;;;5086013;28;34566;-78
2022/08/09 11:20:12;;;;;;;1.80;0.85;;;34.50;1.00;;;;;;5072296;28;34073;-76
2022/08/09 11:22:58;;;;;;;1.10;1.00;;;34.70;1.00;;;;;;5101054;27;34400;-77
2022/08/09 11:25:38;;;;;;;1.13;0.77;;;34.90;1.00;;;;;;5087973;28;34276;-77
2022/08/09 11:28:28;;;;;;;1.55;0.98;;;34.80;1.00;;;;;;5076557;28;34219;-76
2022/08/09 11:30:54;;;;;;;1.63;1.00;;;34.80;1.00;;;;;;5085347;28;34100;-77
2022/08/09 11:33:34;;;;;;;1.95;0.90;;;34.90;1.00;;;;;;5091446;28;36462;-78
2022/08/09 11:36:00;;;;;;;2.78;0.90;;;35.00;1.00;;;;;;5078511;27;34100;-78
2022/08/09 11:38:29;;;;;;;1.00;0.90;;;35.00;1.00;;;;;;5087465;28;34296;-76
2022/08/09 11:40:56;;;;;;;1.08;0.75;;;35.10;1.00;;;;;;5072147;27;34408;-76
2022/08/09 11:43:45;;;;;;;1.23;0.90;;;35.30;1.00;;;;;;5078725;27;36969;-75
2022/08/09 11:46:11;;;;;;;0.95;0.88;;;35.40;1.00;;;;;;5119742;27;34156;-75
2022/08/09 11:48:54;;;;;;;0.73;0.73;;;35.30;1.00;;;;;;5069018;28;34137;-76
2022/08/09 11:51:24;;;;;;;2.63;0.70;;;35.20;1.00;;;;;;5085794;28;34308;-75
2022/08/09 11:54:15;;;;;;;2.28;0.82;;;35.20;1.00;;;;;;5088588;28;35313;-76
2022/08/09 11:56:41;;;;;;;1.20;0.90;;;35.20;1.00;;;;;;5057406;28;34493;-75
2022/08/09 11:59:10;;;;;;;1.10;0.80;;;35.30;1.00;;;;;;5100285;28;35299;-74
2022/08/09 12:01:39;;;;;;;3.92;0.90;;;35.40;1.00;;;;;;5070183;28;34108;-76
2022/08/09 12:04:09;;;;;;;2.72;1.17;;;35.20;1.00;;;;;;5086044;27;36119;-78
2022/08/09 12:06:36;;;;;;;1.98;0.90;;;35.20;1.00;;;;;;5072325;28;34060;-80
2022/08/09 12:09:06;;;;;;;0.80;0.80;;;35.40;1.00;;;;;;5087266;28;34112;-77
2022/08/09 12:11:32;;;;;;;1.65;0.80;;;35.30;1.00;;;;;;5091894;28;34166;-77
2022/08/09 12:14:05;;;;;;;2.55;0.82;;;35.20;1.00;;;;;;5086878;28;35935;-74
2022/08/09 12:16:40;;;;;;;0.75;0.75;;;35.20;1.00;;;;;;5092026;28;34153;-77
2022/08/09 12:19:08;;;;;;;0.88;0.73;;;35.10;1.00;;;;;;5111040;27;34281;-78
2022/08/09 12:21:37;;;;;;;1.70;0.93;;;35.20;1.00;;;;;;5087789;28;34966;-77
2022/08/09 12:24:06;;;;;;;1.27;0.90;;;35.30;1.00;;;;;;5087630;28;36501;-76
2022/08/09 12:26:43;;;;;;;0.98;0.80;;;35.30;1.00;;;;;;5053911;28;34180;-77
2022/08/09 12:29:17;;;;;;;2.17;1.00;;;35.40;1.00;;;;;;5095529;27;34122;-76
2022/08/09 12:31:45;;;;;;;1.00;0.90;;;35.30;1.00;;;;;;5090380;28;34311;-79
2022/08/09 12:34:12;;;;;;;1.92;1.00;;;35.10;1.00;;;;;;5087802;28;35721;-77
2022/08/09 12:36:55;;;;;;;2.08;1.00;;;35.00;1.00;;;;;;5065609;28;34383;-77
2022/08/09 12:39:22;;;;;;;4.57;0.95;;;35.00;1.00;;;;;;5094041;27;34331;-78
2022/08/09 12:41:48;;;;;;;1.13;0.90;;;35.10;1.00;;;;;;5105858;27;34152;-76
2022/08/09 12:44:15;;;;;;;2.25;0.80;;;34.90;1.00;;;;;;5087403;27;35568;-77
2022/08/09 12:46:44;;;;;;;1.98;0.85;;;34.80;1.00;;;;;;5070660;28;34379;-77
2022/08/09 12:49:11;;;;;;;1.13;1.00;;;34.90;1.00;;;;;;5088234;28;34242;-75
2022/08/09 12:51:37;;;;;;;1.33;0.75;;;34.90;1.00;;;;;;5087766;28;34404;-78
2022/08/09 12:54:05;;;;;;;0.90;0.80;;;34.90;1.00;;;;;;5085395;28;34514;-76
2022/08/09 12:56:33;;;;;;;0.90;0.80;;;35.00;1.00;;;;;;5083478;28;34079;-76
2022/08/09 12:59:09;;;;;;;1.48;1.05;;;34.90;1.00;;;;;;5088663;28;34194;-76
2022/08/09 13:01:37;;;;;;;2.25;1.05;;;34.90;1.00;;;;;;5050498;28;34273;-79
2022/08/09 13:04:07;;;;;;;0.68;0.68;;;34.90;1.00;;;;;;5087545;27;35787;-78
2022/08/09 13:06:40;;;;;;;0.80;0.80;;;34.80;1.00;;;;;;5071254;28;34295;-79